createdAt,value
2023-10-15T00:00:25.913Z,8.78
2023-10-15T00:02:53.039Z,8.76
2023-10-15T00:05:21.701Z,8.72
2023-10-15T00:07:50.942Z,8.71
2023-10-15T00:10:20.228Z,8.68
2023-10-15T00:12:49.108Z,8.66
2023-10-15T00:15:20.128Z,8.67
2023-10-15T00:17:48.583Z,8.65
2023-10-15T00:20:19.165Z,8.63
2023-10-15T00:22:46.634Z,8.62
2023-10-15T00:25:15.362Z,8.55
2023-10-15T00:27:43.583Z,8.61
2023-10-15T00:30:14.457Z,8.59
2023-10-15T00:32:44.272Z,8.60
2023-10-15T00:35:15.310Z,8.61
2023-10-15T00:37:42.755Z,8.63
2023-10-15T00:40:17.661Z,8.63
2023-10-15T00:42:48.036Z,8.61
2023-10-15T00:45:21.825Z,8.64
2023-10-15T00:48:04.289Z,8.65
2023-10-15T00:50:32.902Z,8.63
2023-10-15T00:53:07.447Z,8.64
2023-10-15T00:55:38.926Z,8.61
2023-10-15T00:58:09.306Z,8.66
2023-10-15T01:00:54.706Z,8.60
2023-10-15T01:03:32.112Z,8.54
2023-10-15T01:06:05.355Z,8.52
2023-10-15T01:08:36.355Z,8.47
2023-10-15T01:11:10.547Z,8.41
2023-10-15T01:13:38.861Z,8.28
2023-10-15T01:16:09.830Z,8.16
2023-10-15T01:18:37.955Z,8.03
2023-10-15T01:21:08.413Z,7.91
2023-10-15T01:23:58.024Z,7.85
2023-10-15T01:26:25.087Z,7.77
2023-10-15T01:28:54.837Z,7.69
2023-10-15T01:31:21.504Z,7.56
2023-10-15T01:33:48.623Z,7.43
2023-10-15T01:36:19.685Z,7.33
2023-10-15T01:38:47.040Z,7.19
2023-10-15T01:41:14.889Z,7.10
2023-10-15T01:43:42.212Z,7.05
2023-10-15T01:46:11.824Z,6.99
2023-10-15T01:48:42.443Z,7.00
2023-10-15T01:51:09.075Z,7.09
2023-10-15T01:53:35.736Z,7.08
2023-10-15T01:56:05.852Z,7.03
2023-10-15T01:58:33.687Z,7.05
2023-10-15T02:01:32.897Z,7.02
2023-10-15T02:04:00.059Z,7.05
2023-10-15T02:06:26.727Z,7.00
2023-10-15T02:08:53.310Z,6.99
2023-10-15T02:11:23.069Z,7.01
2023-10-15T02:13:50.640Z,6.96
2023-10-15T02:16:19.012Z,6.93
2023-10-15T02:18:46.555Z,6.90
2023-10-15T02:21:17.627Z,6.91
2023-10-15T02:23:53.982Z,6.97
2023-10-15T02:26:31.202Z,7.06
2023-10-15T02:29:08.005Z,7.07
2023-10-15T02:31:42.791Z,7.12
2023-10-15T02:34:22.273Z,7.19
2023-10-15T02:36:48.982Z,7.20
2023-10-15T02:39:15.569Z,7.21
2023-10-15T02:41:42.641Z,7.25
2023-10-15T02:44:17.059Z,7.28
2023-10-15T02:46:51.007Z,7.23
2023-10-15T02:49:18.355Z,7.21
2023-10-15T02:51:47.013Z,7.23
2023-10-15T02:54:20.396Z,7.26
2023-10-15T02:56:47.237Z,7.28
2023-10-15T02:59:17.283Z,7.15
2023-10-15T03:01:47.346Z,7.06
2023-10-15T03:04:18.386Z,6.99
2023-10-15T03:06:49.685Z,6.95
2023-10-15T03:09:19.615Z,6.95
2023-10-15T03:11:51.682Z,7.00
2023-10-15T03:14:18.264Z,6.97
2023-10-15T03:16:45.629Z,6.95
2023-10-15T03:19:20.200Z,6.89
2023-10-15T03:21:47.059Z,6.96
2023-10-15T03:24:18.845Z,7.00
2023-10-15T03:26:48.929Z,6.97
2023-10-15T03:29:16.194Z,6.97
2023-10-15T03:32:03.656Z,6.99
2023-10-15T03:34:30.414Z,6.97
2023-10-15T03:36:59.845Z,6.92
2023-10-15T03:39:32.948Z,6.89
2023-10-15T03:42:12.563Z,6.96
2023-10-15T03:44:48.665Z,7.00
2023-10-15T03:47:17.340Z,7.02
2023-10-15T03:49:47.457Z,7.01
2023-10-15T03:52:23.626Z,7.02
2023-10-15T03:54:51.358Z,7.01
2023-10-15T03:57:19.256Z,7.00
2023-10-15T03:59:47.871Z,6.94
2023-10-15T04:02:24.368Z,6.93
2023-10-15T04:05:13.677Z,6.90
2023-10-15T04:07:48.353Z,6.81
2023-10-15T04:10:16.296Z,6.84
2023-10-15T04:12:44.779Z,6.81
2023-10-15T04:15:18.666Z,6.75
2023-10-15T04:17:46.713Z,6.71
2023-10-15T04:20:16.375Z,6.74
2023-10-15T04:22:48.348Z,6.85
2023-10-15T04:25:27.919Z,6.79
2023-10-15T04:27:55.878Z,6.76
2023-10-15T04:30:23.986Z,6.68
2023-10-15T04:32:50.580Z,6.65
2023-10-15T04:35:26.558Z,6.68
2023-10-15T04:37:59.414Z,6.69
2023-10-15T04:40:26.145Z,6.67
2023-10-15T04:42:53.047Z,6.63
2023-10-15T04:45:41.658Z,6.56
2023-10-15T04:48:14.419Z,6.55
2023-10-15T04:50:44.550Z,6.55
2023-10-15T04:53:18.837Z,6.51
2023-10-15T04:55:45.478Z,6.49
2023-10-15T04:58:12.474Z,6.49
2023-10-15T05:00:43.522Z,6.53
2023-10-15T05:03:13.012Z,6.52
2023-10-15T05:05:39.675Z,6.55
2023-10-15T05:08:12.300Z,6.54
2023-10-15T05:10:51.302Z,6.53
2023-10-15T05:13:18.618Z,6.51
2023-10-15T05:15:46.382Z,6.41
2023-10-15T05:18:13.264Z,6.40
2023-10-15T05:20:39.847Z,6.34
2023-10-15T05:23:06.685Z,6.29
2023-10-15T05:25:33.681Z,6.31
2023-10-15T05:28:03.452Z,6.29
2023-10-15T05:30:30.297Z,6.26
2023-10-15T05:32:57.063Z,6.25
2023-10-15T05:35:24.969Z,6.27
2023-10-15T05:37:51.604Z,6.29
2023-10-15T05:40:18.191Z,6.28
2023-10-15T05:42:44.918Z,6.27
2023-10-15T05:45:11.615Z,6.31
2023-10-15T05:47:38.317Z,6.32
2023-10-15T05:50:08.204Z,6.28
2023-10-15T05:52:34.824Z,6.32
2023-10-15T05:55:02.457Z,6.29
2023-10-15T05:57:29.863Z,6.23
2023-10-15T05:59:57.361Z,6.19
2023-10-15T06:02:24.671Z,6.16
2023-10-15T06:04:51.329Z,6.10
2023-10-15T06:07:17.884Z,6.07
2023-10-15T06:09:45.790Z,6.09
2023-10-15T06:12:14.349Z,6.13
2023-10-15T06:14:41.318Z,6.19
2023-10-15T06:17:08.507Z,6.26
2023-10-15T06:19:35.804Z,6.24
2023-10-15T06:22:02.879Z,6.37
2023-10-15T06:24:29.482Z,6.66
2023-10-15T06:26:56.068Z,6.66
2023-10-15T06:29:22.693Z,6.65
2023-10-15T06:31:49.286Z,6.61
2023-10-15T06:34:17.278Z,6.44
2023-10-15T06:36:44.060Z,6.52
2023-10-15T06:39:10.736Z,6.56
2023-10-15T06:41:37.886Z,6.74
2023-10-15T06:44:04.989Z,6.98
2023-10-15T06:46:32.742Z,7.25
2023-10-15T06:48:59.674Z,7.45
2023-10-15T06:51:27.542Z,7.49
2023-10-15T06:53:54.311Z,7.40
2023-10-15T06:56:20.959Z,7.26
2023-10-15T06:58:48.742Z,7.39
2023-10-15T07:01:15.551Z,7.59
2023-10-15T07:03:42.252Z,7.72
2023-10-15T07:06:09.947Z,7.74
2023-10-15T07:08:36.745Z,7.92
2023-10-15T07:11:06.390Z,8.16
2023-10-15T07:13:33.439Z,7.94
2023-10-15T07:16:01.893Z,7.80
2023-10-15T07:18:28.746Z,7.65
2023-10-15T07:20:55.985Z,7.49
2023-10-15T07:23:22.548Z,7.38
2023-10-15T07:25:49.213Z,7.21
2023-10-15T07:28:15.831Z,7.11
2023-10-15T07:30:42.401Z,7.08
2023-10-15T07:33:09.744Z,7.04
2023-10-15T07:35:36.639Z,7.09
2023-10-15T07:38:04.095Z,7.07
2023-10-15T07:40:34.084Z,7.02
2023-10-15T07:43:01.722Z,7.03
2023-10-15T07:45:30.279Z,7.19
2023-10-15T07:48:01.022Z,7.37
2023-10-15T07:50:29.120Z,7.51
2023-10-15T07:52:56.499Z,7.51
2023-10-15T07:55:27.583Z,7.61
2023-10-15T07:57:54.935Z,7.69
2023-10-15T08:00:25.209Z,7.70
2023-10-15T08:02:59.127Z,7.75
2023-10-15T08:05:33.057Z,7.81
2023-10-15T08:08:02.253Z,7.89
2023-10-15T08:10:33.774Z,8.04
2023-10-15T08:13:02.995Z,8.32
2023-10-15T08:15:29.680Z,8.45
2023-10-15T08:17:58.463Z,8.51
2023-10-15T08:20:25.318Z,8.54
2023-10-15T08:22:51.963Z,8.35
2023-10-15T08:25:22.903Z,8.18
2023-10-15T08:27:50.234Z,8.07
2023-10-15T08:30:18.779Z,7.89
2023-10-15T08:32:47.040Z,7.74
2023-10-15T08:35:17.818Z,7.75
2023-10-15T08:37:45.719Z,7.83
2023-10-15T08:40:20.023Z,7.91
2023-10-15T08:43:18.556Z,8.19
2023-10-15T08:45:46.809Z,8.35
2023-10-15T08:48:14.970Z,8.28
2023-10-15T08:50:41.970Z,8.39
2023-10-15T08:53:09.445Z,8.52
2023-10-15T08:55:39.641Z,8.59
2023-10-15T08:58:08.602Z,8.61
2023-10-15T09:00:37.812Z,8.72
2023-10-15T09:03:05.045Z,8.76
2023-10-15T09:05:38.315Z,8.97
2023-10-15T09:08:09.474Z,9.08
2023-10-15T09:10:42.509Z,9.04
2023-10-15T09:13:21.133Z,9.09
2023-10-15T09:15:49.630Z,9.07
2023-10-15T09:18:17.411Z,9.22
2023-10-15T09:20:47.116Z,9.23
2023-10-15T09:23:14.044Z,9.54
2023-10-15T09:25:42.613Z,9.42
2023-10-15T09:28:09.456Z,9.23
2023-10-15T09:30:36.039Z,9.10
2023-10-15T09:33:02.681Z,9.04
2023-10-15T09:35:30.792Z,9.04
2023-10-15T09:37:58.089Z,8.82
2023-10-15T09:40:25.895Z,8.78
2023-10-15T09:42:55.156Z,8.57
2023-10-15T09:45:25.771Z,8.49
2023-10-15T09:47:58.747Z,8.25
2023-10-15T09:50:28.718Z,8.11
2023-10-15T09:53:02.469Z,7.84
2023-10-15T09:55:33.549Z,7.52
2023-10-15T09:58:12.193Z,7.32
2023-10-15T10:00:55.930Z,7.11
2023-10-15T10:03:50.387Z,6.89
2023-10-15T10:07:02.283Z,6.78
2023-10-15T10:09:38.116Z,6.68
2023-10-15T10:12:14.604Z,6.54
2023-10-15T10:15:02.708Z,6.35
2023-10-15T10:17:30.890Z,6.15
2023-10-15T10:19:57.957Z,5.97
2023-10-15T10:22:28.445Z,5.89
2023-10-15T10:24:56.146Z,5.65
2023-10-15T10:27:22.722Z,5.47
2023-10-15T10:30:15.923Z,5.29
2023-10-15T10:32:43.044Z,5.24
2023-10-15T10:35:20.111Z,5.19
2023-10-15T10:38:11.849Z,5.23
2023-10-15T10:41:19.414Z,5.39
2023-10-15T10:43:59.325Z,5.45
2023-10-15T10:46:42.638Z,5.54
2023-10-15T10:49:20.125Z,5.62
2023-10-15T10:52:16.303Z,5.67
2023-10-15T10:54:43.776Z,5.63
2023-10-15T10:57:14.036Z,5.80
2023-10-15T10:59:43.340Z,5.78
2023-10-15T11:02:17.600Z,5.92
2023-10-15T11:04:44.713Z,5.88
2023-10-15T11:07:12.609Z,5.75
2023-10-15T11:09:39.591Z,5.75
2023-10-15T11:12:13.596Z,5.83
2023-10-15T11:14:41.679Z,5.87
2023-10-15T11:17:11.585Z,5.93
2023-10-15T11:19:39.326Z,6.07
2023-10-15T11:22:06.936Z,6.00
2023-10-15T11:24:33.951Z,6.08
2023-10-15T11:27:01.134Z,6.06
2023-10-15T11:29:32.186Z,6.11
2023-10-15T11:31:59.970Z,6.06
2023-10-15T11:34:29.446Z,6.28
2023-10-15T11:36:57.754Z,6.45
2023-10-15T11:39:27.157Z,6.47
2023-10-15T11:41:57.463Z,6.55
2023-10-15T11:44:32.082Z,6.62
2023-10-15T11:47:10.447Z,6.80
2023-10-15T11:49:44.296Z,6.73
2023-10-15T11:52:16.794Z,6.56
2023-10-15T11:54:51.507Z,6.64
2023-10-15T11:57:26.481Z,6.54
2023-10-15T11:59:56.917Z,6.40
2023-10-15T12:02:25.605Z,6.38
2023-10-15T12:04:53.413Z,6.41
2023-10-15T12:07:23.036Z,6.36
2023-10-15T12:09:50.770Z,6.28
2023-10-15T12:12:19.307Z,6.20
2023-10-15T12:14:46.160Z,6.15
2023-10-15T12:17:14.140Z,6.11
2023-10-15T12:19:42.831Z,6.07
2023-10-15T12:22:13.472Z,6.03
2023-10-15T12:24:41.672Z,6.03
2023-10-15T12:27:08.272Z,6.04
2023-10-15T12:29:34.888Z,6.04
2023-10-15T12:32:01.562Z,5.92
2023-10-15T12:34:28.180Z,5.79
2023-10-15T12:36:54.839Z,5.80
2023-10-15T12:39:28.645Z,5.71
2023-10-15T12:41:55.650Z,5.56
2023-10-15T12:44:24.084Z,5.48
2023-10-15T12:46:52.305Z,5.53
2023-10-15T12:49:20.647Z,5.56
2023-10-15T12:51:47.678Z,5.60
2023-10-15T12:54:14.897Z,5.63
2023-10-15T12:56:41.647Z,5.66
2023-10-15T12:59:08.381Z,5.80
2023-10-15T13:01:35.540Z,5.93
2023-10-15T13:04:02.220Z,5.99
2023-10-15T13:06:28.809Z,5.98
2023-10-15T13:08:57.065Z,5.82
2023-10-15T13:11:24.248Z,5.90
2023-10-15T13:13:50.966Z,5.93
2023-10-15T13:16:19.518Z,5.83
2023-10-15T13:18:47.311Z,5.74
2023-10-15T13:21:15.530Z,5.67
2023-10-15T13:23:42.255Z,5.62
2023-10-15T13:26:09.932Z,5.57
2023-10-15T13:28:37.153Z,5.50
2023-10-15T13:31:04.264Z,5.39
2023-10-15T13:33:31.837Z,5.34
2023-10-15T13:35:59.058Z,5.29
2023-10-15T13:38:27.128Z,5.20
2023-10-15T13:40:53.977Z,5.08
2023-10-15T13:43:20.935Z,4.90
2023-10-15T13:45:47.577Z,4.77
2023-10-15T13:48:14.333Z,4.66
2023-10-15T13:50:41.180Z,4.55
2023-10-15T13:53:07.815Z,4.58
2023-10-15T13:55:34.493Z,4.50
2023-10-15T13:58:01.292Z,4.37
2023-10-15T14:00:29.341Z,4.32
2023-10-15T14:02:57.817Z,4.34
2023-10-15T14:05:26.865Z,4.29
2023-10-15T14:07:55.459Z,4.24
2023-10-15T14:10:22.427Z,4.23
2023-10-15T14:12:51.796Z,4.22
2023-10-15T14:15:21.610Z,4.17
2023-10-15T14:17:48.301Z,4.11
2023-10-15T14:20:19.731Z,4.11
2023-10-15T14:22:47.382Z,4.14
2023-10-15T14:25:14.843Z,4.15
2023-10-15T14:27:41.773Z,4.14
2023-10-15T14:30:08.961Z,4.17
2023-10-15T14:32:36.251Z,4.32
2023-10-15T14:35:06.562Z,4.37
2023-10-15T14:37:33.963Z,4.36
2023-10-15T14:40:01.472Z,4.36
2023-10-15T14:42:28.307Z,4.37
2023-10-15T14:44:55.418Z,4.50
2023-10-15T14:47:22.320Z,4.53
2023-10-15T14:49:49.078Z,4.56
2023-10-15T14:52:15.683Z,4.59
2023-10-15T14:54:42.408Z,4.65
2023-10-15T14:57:16.556Z,4.65
2023-10-15T14:59:43.202Z,4.67
2023-10-15T15:02:11.452Z,4.68
2023-10-15T15:04:38.279Z,4.68
2023-10-15T15:07:04.881Z,4.69
2023-10-15T15:09:31.450Z,4.68
2023-10-15T15:11:58.423Z,4.62
2023-10-15T15:14:25.182Z,4.56
2023-10-15T15:16:52.145Z,4.51
2023-10-15T15:19:19.238Z,4.55
2023-10-15T15:21:46.008Z,4.33
2023-10-15T15:24:16.910Z,4.15
2023-10-15T15:26:45.160Z,4.11
2023-10-15T15:29:14.721Z,4.19
2023-10-15T15:31:41.950Z,4.25
2023-10-15T15:34:09.706Z,4.26
2023-10-15T15:36:36.253Z,4.24
2023-10-15T15:39:04.985Z,4.22
2023-10-15T15:41:33.821Z,4.17
2023-10-15T15:44:01.616Z,4.15
2023-10-15T15:46:29.357Z,4.08
2023-10-15T15:48:57.618Z,3.98
2023-10-15T15:51:24.239Z,3.91
2023-10-15T15:53:51.993Z,3.85
2023-10-15T15:56:18.756Z,3.81
2023-10-15T15:58:46.969Z,3.77
2023-10-15T16:01:37.595Z,3.72
2023-10-15T16:04:10.621Z,3.64
2023-10-15T16:06:37.314Z,3.57
2023-10-15T16:09:04.040Z,3.54
2023-10-15T16:11:31.488Z,3.55
2023-10-15T16:13:58.507Z,3.58
2023-10-15T16:16:26.109Z,3.59
2023-10-15T16:18:53.578Z,3.60
2023-10-15T16:21:20.228Z,3.60
2023-10-15T16:23:46.861Z,3.60
2023-10-15T16:26:13.981Z,3.59
2023-10-15T16:28:40.753Z,3.58
2023-10-15T16:31:07.441Z,3.61
2023-10-15T16:33:34.077Z,3.61
2023-10-15T16:36:00.613Z,3.64
2023-10-15T16:38:28.066Z,3.65
2023-10-15T16:40:54.695Z,3.66
2023-10-15T16:43:21.289Z,3.68
2023-10-15T16:45:50.808Z,3.69
2023-10-15T16:48:17.760Z,3.71
2023-10-15T16:50:44.536Z,3.70
2023-10-15T16:53:14.038Z,3.69
2023-10-15T16:55:41.679Z,3.69
2023-10-15T16:58:08.554Z,3.66
2023-10-15T17:00:35.669Z,3.68
2023-10-15T17:03:05.566Z,3.67
2023-10-15T17:05:32.368Z,3.66
2023-10-15T17:07:59.556Z,3.68
2023-10-15T17:10:26.135Z,3.69
2023-10-15T17:12:53.267Z,3.75
2023-10-15T17:15:19.893Z,3.91
2023-10-15T17:17:46.542Z,4.02
2023-10-15T17:20:17.063Z,4.10
2023-10-15T17:22:48.755Z,4.14
2023-10-15T17:25:15.447Z,4.10
2023-10-15T17:27:42.024Z,3.91
2023-10-15T17:30:18.395Z,3.51
2023-10-15T17:32:46.130Z,3.05
2023-10-15T17:35:13.130Z,2.81
2023-10-15T17:40:27.535Z,2.41
2023-10-15T17:42:54.289Z,2.32
2023-10-15T17:45:24.589Z,2.25
2023-10-15T17:47:51.395Z,2.22
2023-10-15T17:48:02.823Z,2.55
2023-10-15T17:50:18.098Z,2.26
2023-10-15T17:52:44.705Z,2.35
2023-10-15T17:55:11.412Z,2.45
2023-10-15T17:57:38.048Z,2.46
2023-10-15T18:00:12.782Z,2.41
2023-10-15T18:02:39.650Z,2.37
2023-10-15T18:05:06.496Z,2.35
2023-10-15T18:07:33.120Z,2.34
2023-10-15T18:09:59.724Z,2.31
2023-10-15T18:12:27.007Z,2.33
2023-10-15T18:14:54.989Z,2.39
2023-10-15T18:17:22.153Z,2.42
2023-10-15T18:19:50.964Z,2.40
2023-10-15T18:22:17.828Z,2.40
2023-10-15T18:24:44.929Z,2.40
2023-10-15T18:27:11.611Z,2.37
2023-10-15T18:29:38.261Z,2.30
2023-10-15T18:32:06.672Z,2.22
2023-10-15T18:34:33.522Z,2.18
2023-10-15T18:37:00.155Z,2.17
2023-10-15T18:39:26.846Z,2.15
2023-10-15T18:41:53.477Z,2.08
2023-10-15T18:44:21.024Z,2.10
2023-10-15T18:46:48.882Z,2.13
2023-10-15T18:49:16.108Z,2.13
2023-10-15T18:51:42.768Z,2.15
2023-10-15T18:54:10.498Z,2.12
2023-10-15T18:56:37.396Z,2.13
2023-10-15T18:59:04.458Z,2.12
2023-10-15T19:01:33.035Z,2.13
2023-10-15T19:04:00.224Z,2.10
2023-10-15T19:06:26.985Z,2.06
2023-10-15T19:08:54.035Z,2.06
2023-10-15T19:11:20.654Z,2.07
2023-10-15T19:13:47.247Z,2.11
2023-10-15T19:16:13.776Z,2.11
2023-10-15T19:18:45.836Z,2.17
2023-10-15T19:21:13.495Z,2.19
2023-10-15T19:23:40.469Z,2.29
2023-10-15T19:26:08.020Z,2.33
2023-10-15T19:28:35.516Z,2.41
2023-10-15T19:31:03.348Z,2.45
2023-10-15T19:33:31.842Z,2.50
2023-10-15T19:36:02.349Z,2.57
2023-10-15T19:38:31.238Z,2.67
2023-10-15T19:41:01.676Z,2.74
2023-10-15T19:43:32.080Z,2.82
2023-10-15T19:45:59.052Z,2.93
2023-10-15T19:48:25.930Z,3.00
2023-10-15T19:50:53.917Z,3.08
2023-10-15T19:53:27.500Z,3.11
2023-10-15T19:55:54.489Z,3.11
2023-10-15T19:58:21.092Z,3.11
2023-10-15T20:00:50.616Z,3.06
2023-10-15T20:03:18.406Z,2.98
2023-10-15T20:05:47.005Z,2.95
2023-10-15T20:08:15.885Z,2.82
2023-10-15T20:10:43.594Z,2.65
2023-10-15T20:13:11.172Z,2.44
2023-10-15T20:15:39.247Z,2.26
2023-10-15T20:18:06.241Z,2.04
2023-10-15T20:20:32.956Z,1.84
2023-10-15T20:22:59.552Z,1.69
2023-10-15T20:25:26.140Z,1.55
2023-10-15T20:27:52.960Z,1.41
2023-10-15T20:30:19.689Z,1.26
2023-10-15T20:32:55.613Z,1.23
2023-10-15T20:35:26.026Z,1.17
2023-10-15T20:37:53.183Z,1.10
2023-10-15T20:40:21.841Z,1.05
2023-10-15T20:42:49.916Z,0.97
2023-10-15T20:45:18.923Z,0.96
2023-10-15T20:47:47.565Z,0.88
2023-10-15T20:50:16.406Z,0.82
2023-10-15T20:52:45.389Z,0.77
2023-10-15T20:55:12.799Z,0.73
2023-10-15T20:57:40.796Z,0.64
2023-10-15T21:00:12.127Z,0.55
2023-10-15T21:02:43.284Z,0.50
2023-10-15T21:05:11.505Z,0.44
2023-10-15T21:07:40.335Z,0.37
2023-10-15T21:10:08.685Z,0.27
2023-10-15T21:12:35.776Z,0.21
2023-10-15T21:15:05.220Z,0.16
2023-10-15T21:17:31.989Z,0.07
2023-10-15T21:19:58.746Z,0.07
2023-10-15T21:22:25.353Z,0.07
2023-10-15T21:24:52.139Z,0.10
2023-10-15T21:27:20.587Z,0.14
2023-10-15T21:29:47.615Z,0.15
2023-10-15T21:32:14.339Z,0.16
2023-10-15T21:34:41.373Z,0.09
2023-10-15T21:37:08.028Z,-0.07
2023-10-15T21:39:34.779Z,-0.07
2023-10-15T21:42:01.506Z,0.01
2023-10-15T21:44:28.926Z,0.02
2023-10-15T21:46:56.463Z,0.02
2023-10-15T21:49:23.165Z,-0.02
2023-10-15T21:51:49.785Z,-0.04
2023-10-15T21:54:17.014Z,-0.04
2023-10-15T21:56:43.983Z,-0.09
2023-10-15T21:59:13.698Z,-0.05
2023-10-15T22:01:40.487Z,-0.11
2023-10-15T22:04:08.061Z,-0.16
2023-10-15T22:06:36.732Z,-0.17
2023-10-15T22:09:12.353Z,-0.17
2023-10-15T22:11:40.499Z,-0.12
2023-10-15T22:14:08.241Z,-0.15
2023-10-15T22:16:35.280Z,-0.15
2023-10-15T22:19:07.090Z,-0.24
2023-10-15T22:21:34.262Z,-0.38
2023-10-15T22:24:06.952Z,-0.45
2023-10-15T22:26:36.050Z,-0.48
2023-10-15T22:29:07.589Z,-0.57
2023-10-15T22:31:34.534Z,-0.63
2023-10-15T22:34:01.539Z,-0.76
2023-10-15T22:36:28.126Z,-0.78
2023-10-15T22:38:54.693Z,-0.75
2023-10-15T22:41:22.029Z,-0.69
2023-10-15T22:43:48.638Z,-0.69
2023-10-15T22:46:15.324Z,-0.73
2023-10-15T22:48:41.961Z,-0.81
2023-10-15T22:51:08.736Z,-0.95
2023-10-15T22:53:35.479Z,-1.00
2023-10-15T22:56:02.082Z,-0.95
2023-10-15T22:58:28.739Z,-0.92
2023-10-15T23:00:55.971Z,-0.95
2023-10-15T23:03:23.099Z,-0.96
2023-10-15T23:05:51.189Z,-1.05
2023-10-15T23:08:17.785Z,-1.10
2023-10-15T23:10:44.313Z,-1.02
2023-10-15T23:13:11.241Z,-0.94
2023-10-15T23:15:41.728Z,-0.84
2023-10-15T23:18:10.378Z,-0.72
2023-10-15T23:20:41.600Z,-0.70
2023-10-15T23:23:19.181Z,-0.58
2023-10-15T23:25:46.116Z,-0.55
2023-10-15T23:28:13.010Z,-0.54
2023-10-15T23:30:45.648Z,-0.49
2023-10-15T23:33:12.684Z,-0.67
2023-10-15T23:35:39.467Z,-0.90
2023-10-15T23:38:08.567Z,-1.01
2023-10-15T23:40:38.806Z,-1.04
2023-10-15T23:43:12.013Z,-1.08
2023-10-15T23:45:39.462Z,-1.14
2023-10-15T23:48:12.234Z,-1.01
2023-10-15T23:50:45.915Z,-1.03
2023-10-15T23:53:20.688Z,-0.83
2023-10-15T23:55:48.236Z,-0.81
2023-10-15T23:58:14.794Z,-0.86
